sensor_id;sensor_type;location;lat;lon;timestamp;P1;durP1;ratioP1;P2;durP2;ratioP2
22916;SDS011;11624;53.250;7.456;2023-04-01T00:00:36;22.40;;;8.60;;
22916;SDS011;11624;53.250;7.456;2023-04-01T00:03:04;21.73;;;8.60;;
22916;SDS011;11624;53.250;7.456;2023-04-01T00:05:33;22.08;;;8.60;;
22916;SDS011;11624;53.250;7.456;2023-04-01T00:08:01;20.42;;;9.23;;
22916;SDS011;11624;53.250;7.456;2023-04-01T00:10:29;23.27;;;8.88;;
22916;SDS011;11624;53.250;7.456;2023-04-01T00:13:01;21.92;;;9.23;;
22916;SDS011;11624;53.250;7.456;2023-04-01T00:15:29;21.75;;;8.95;;
22916;SDS011;11624;53.250;7.456;2023-04-01T00:17:57;25.95;;;10.43;;
22916;SDS011;11624;53.250;7.456;2023-04-01T00:20:27;25.25;;;9.75;;
22916;SDS011;11624;53.250;7.456;2023-04-01T00:22:55;24.65;;;9.88;;
22916;SDS011;11624;53.250;7.456;2023-04-01T00:25:23;23.00;;;10.00;;
22916;SDS011;11624;53.250;7.456;2023-04-01T00:27:52;22.92;;;10.45;;
22916;SDS011;11624;53.250;7.456;2023-04-01T00:30:21;23.15;;;9.85;;
22916;SDS011;11624;53.250;7.456;2023-04-01T00:32:51;23.42;;;10.10;;
22916;SDS011;11624;53.250;7.456;2023-04-01T00:35:19;26.80;;;10.63;;
22916;SDS011;11624;53.250;7.456;2023-04-01T00:37:48;23.83;;;10.75;;
22916;SDS011;11624;53.250;7.456;2023-04-01T00:40:23;23.92;;;10.20;;
22916;SDS011;11624;53.250;7.456;2023-04-01T00:42:53;22.85;;;10.27;;
22916;SDS011;11624;53.250;7.456;2023-04-01T00:45:27;24.40;;;11.32;;
22916;SDS011;11624;53.250;7.456;2023-04-01T00:48:02;28.10;;;10.75;;
22916;SDS011;11624;53.250;7.456;2023-04-01T00:50:33;25.90;;;10.80;;
22916;SDS011;11624;53.250;7.456;2023-04-01T00:53:03;29.27;;;11.80;;
22916;SDS011;11624;53.250;7.456;2023-04-01T00:55:33;29.88;;;11.65;;
22916;SDS011;11624;53.250;7.456;2023-04-01T00:58:05;24.42;;;11.52;;
22916;SDS011;11624;53.250;7.456;2023-04-01T01:00:37;26.85;;;11.70;;
22916;SDS011;11624;53.250;7.456;2023-04-01T01:03:06;27.95;;;12.00;;
22916;SDS011;11624;53.250;7.456;2023-04-01T01:05:37;32.78;;;13.05;;
22916;SDS011;11624;53.250;7.456;2023-04-01T01:08:17;28.60;;;12.60;;
22916;SDS011;11624;53.250;7.456;2023-04-01T01:10:52;35.53;;;13.55;;
22916;SDS011;11624;53.250;7.456;2023-04-01T01:13:22;32.40;;;13.65;;
22916;SDS011;11624;53.250;7.456;2023-04-01T01:15:58;32.63;;;14.30;;
22916;SDS011;11624;53.250;7.456;2023-04-01T01:18:33;37.72;;;15.13;;
22916;SDS011;11624;53.250;7.456;2023-04-01T01:21:23;31.30;;;14.15;;
22916;SDS011;11624;53.250;7.456;2023-04-01T01:24:12;30.73;;;13.73;;
22916;SDS011;11624;53.250;7.456;2023-04-01T01:27:04;33.47;;;15.07;;
22916;SDS011;11624;53.250;7.456;2023-04-01T01:32:41;28.52;;;13.43;;
22916;SDS011;11624;53.250;7.456;2023-04-01T01:35:25;31.33;;;13.88;;
22916;SDS011;11624;53.250;7.456;2023-04-01T01:37:56;32.35;;;14.50;;
22916;SDS011;11624;53.250;7.456;2023-04-01T01:40:28;32.88;;;14.85;;
22916;SDS011;11624;53.250;7.456;2023-04-01T01:43:00;29.30;;;14.90;;
22916;SDS011;11624;53.250;7.456;2023-04-01T01:45:33;35.78;;;16.02;;
22916;SDS011;11624;53.250;7.456;2023-04-01T01:48:05;36.05;;;16.85;;
22916;SDS011;11624;53.250;7.456;2023-04-01T01:50:37;31.55;;;15.45;;
22916;SDS011;11624;53.250;7.456;2023-04-01T01:53:10;29.40;;;14.48;;
22916;SDS011;11624;53.250;7.456;2023-04-01T01:55:40;36.50;;;14.98;;
22916;SDS011;11624;53.250;7.456;2023-04-01T01:58:11;28.48;;;13.82;;
22916;SDS011;11624;53.250;7.456;2023-04-01T02:00:44;33.03;;;15.35;;
22916;SDS011;11624;53.250;7.456;2023-04-01T02:03:16;42.05;;;17.92;;
22916;SDS011;11624;53.250;7.456;2023-04-01T02:05:47;39.90;;;18.70;;
22916;SDS011;11624;53.250;7.456;2023-04-01T02:08:16;38.75;;;19.27;;
22916;SDS011;11624;53.250;7.456;2023-04-01T02:10:48;44.60;;;18.75;;
22916;SDS011;11624;53.250;7.456;2023-04-01T02:13:24;43.38;;;20.27;;
22916;SDS011;11624;53.250;7.456;2023-04-01T02:15:58;45.35;;;20.50;;
22916;SDS011;11624;53.250;7.456;2023-04-01T02:18:31;41.10;;;20.00;;
22916;SDS011;11624;53.250;7.456;2023-04-01T02:21:04;40.53;;;18.95;;
22916;SDS011;11624;53.250;7.456;2023-04-01T02:23:33;37.53;;;18.55;;
22916;SDS011;11624;53.250;7.456;2023-04-01T02:26:04;39.60;;;17.27;;
22916;SDS011;11624;53.250;7.456;2023-04-01T02:28:34;39.53;;;17.73;;
22916;SDS011;11624;53.250;7.456;2023-04-01T02:31:06;40.58;;;17.48;;
22916;SDS011;11624;53.250;7.456;2023-04-01T02:33:37;44.33;;;18.83;;
22916;SDS011;11624;53.250;7.456;2023-04-01T02:36:09;38.25;;;17.15;;
22916;SDS011;11624;53.250;7.456;2023-04-01T02:38:40;36.65;;;16.48;;
22916;SDS011;11624;53.250;7.456;2023-04-01T02:41:09;36.33;;;17.23;;
22916;SDS011;11624;53.250;7.456;2023-04-01T02:43:37;33.22;;;16.17;;
22916;SDS011;11624;53.250;7.456;2023-04-01T02:46:05;42.22;;;17.63;;
22916;SDS011;11624;53.250;7.456;2023-04-01T02:48:34;40.80;;;18.52;;
22916;SDS011;11624;53.250;7.456;2023-04-01T02:51:02;42.75;;;17.15;;
22916;SDS011;11624;53.250;7.456;2023-04-01T02:53:32;41.38;;;16.70;;
22916;SDS011;11624;53.250;7.456;2023-04-01T02:56:00;38.05;;;17.30;;
22916;SDS011;11624;53.250;7.456;2023-04-01T02:58:28;45.50;;;18.50;;
22916;SDS011;11624;53.250;7.456;2023-04-01T03:00:56;42.28;;;18.23;;
22916;SDS011;11624;53.250;7.456;2023-04-01T03:03:24;42.45;;;17.88;;
22916;SDS011;11624;53.250;7.456;2023-04-01T03:05:52;38.80;;;17.85;;
22916;SDS011;11624;53.250;7.456;2023-04-01T03:08:22;42.13;;;17.27;;
22916;SDS011;11624;53.250;7.456;2023-04-01T03:10:51;41.67;;;17.83;;
22916;SDS011;11624;53.250;7.456;2023-04-01T03:13:20;43.88;;;19.15;;
22916;SDS011;11624;53.250;7.456;2023-04-01T03:15:48;38.13;;;17.67;;
22916;SDS011;11624;53.250;7.456;2023-04-01T03:18:16;46.20;;;18.30;;
22916;SDS011;11624;53.250;7.456;2023-04-01T03:20:44;43.78;;;17.30;;
22916;SDS011;11624;53.250;7.456;2023-04-01T03:23:12;45.08;;;17.60;;
22916;SDS011;11624;53.250;7.456;2023-04-01T03:25:42;43.20;;;18.13;;
22916;SDS011;11624;53.250;7.456;2023-04-01T03:28:12;39.40;;;17.33;;
22916;SDS011;11624;53.250;7.456;2023-04-01T03:30:40;43.70;;;17.85;;
22916;SDS011;11624;53.250;7.456;2023-04-01T03:33:09;44.53;;;18.73;;
22916;SDS011;11624;53.250;7.456;2023-04-01T03:35:37;39.90;;;17.85;;
22916;SDS011;11624;53.250;7.456;2023-04-01T03:38:05;45.70;;;18.15;;
22916;SDS011;11624;53.250;7.456;2023-04-01T03:40:33;39.75;;;17.85;;
22916;SDS011;11624;53.250;7.456;2023-04-01T03:43:03;39.78;;;17.80;;
22916;SDS011;11624;53.250;7.456;2023-04-01T03:45:40;48.20;;;19.25;;
22916;SDS011;11624;53.250;7.456;2023-04-01T03:48:12;44.58;;;19.23;;
22916;SDS011;11624;53.250;7.456;2023-04-01T03:50:40;40.78;;;18.02;;
22916;SDS011;11624;53.250;7.456;2023-04-01T03:53:08;40.85;;;18.35;;
22916;SDS011;11624;53.250;7.456;2023-04-01T03:55:40;44.35;;;18.52;;
22916;SDS011;11624;53.250;7.456;2023-04-01T03:58:08;45.67;;;18.85;;
22916;SDS011;11624;53.250;7.456;2023-04-01T04:00:38;39.75;;;18.02;;
22916;SDS011;11624;53.250;7.456;2023-04-01T04:03:06;48.75;;;18.70;;
22916;SDS011;11624;53.250;7.456;2023-04-01T04:05:35;42.90;;;18.70;;
22916;SDS011;11624;53.250;7.456;2023-04-01T04:08:03;44.75;;;19.02;;
22916;SDS011;11624;53.250;7.456;2023-04-01T04:10:34;40.72;;;18.70;;
22916;SDS011;11624;53.250;7.456;2023-04-01T04:13:02;43.38;;;19.13;;
22916;SDS011;11624;53.250;7.456;2023-04-01T04:15:35;43.20;;;18.98;;
22916;SDS011;11624;53.250;7.456;2023-04-01T04:18:04;44.25;;;19.20;;
22916;SDS011;11624;53.250;7.456;2023-04-01T04:20:33;60.58;;;19.48;;
22916;SDS011;11624;53.250;7.456;2023-04-01T04:23:01;50.78;;;19.35;;
22916;SDS011;11624;53.250;7.456;2023-04-01T04:25:30;44.92;;;19.35;;
22916;SDS011;11624;53.250;7.456;2023-04-01T04:27:59;46.60;;;19.05;;
22916;SDS011;11624;53.250;7.456;2023-04-01T04:30:27;45.05;;;18.05;;
22916;SDS011;11624;53.250;7.456;2023-04-01T04:32:55;42.92;;;19.10;;
22916;SDS011;11624;53.250;7.456;2023-04-01T04:35:25;55.53;;;20.60;;
22916;SDS011;11624;53.250;7.456;2023-04-01T04:37:53;46.80;;;19.35;;
22916;SDS011;11624;53.250;7.456;2023-04-01T04:40:21;49.78;;;20.05;;
22916;SDS011;11624;53.250;7.456;2023-04-01T04:42:49;48.13;;;19.58;;
22916;SDS011;11624;53.250;7.456;2023-04-01T04:45:17;64.97;;;20.50;;
22916;SDS011;11624;53.250;7.456;2023-04-01T04:47:52;53.65;;;20.67;;
22916;SDS011;11624;53.250;7.456;2023-04-01T04:50:21;47.75;;;19.58;;
22916;SDS011;11624;53.250;7.456;2023-04-01T04:52:51;47.53;;;19.95;;
22916;SDS011;11624;53.250;7.456;2023-04-01T04:55:19;47.63;;;19.85;;
22916;SDS011;11624;53.250;7.456;2023-04-01T04:57:55;47.10;;;19.80;;
22916;SDS011;11624;53.250;7.456;2023-04-01T05:00:23;45.20;;;19.52;;
22916;SDS011;11624;53.250;7.456;2023-04-01T05:02:56;48.05;;;20.90;;
22916;SDS011;11624;53.250;7.456;2023-04-01T05:05:24;46.20;;;19.63;;
22916;SDS011;11624;53.250;7.456;2023-04-01T05:07:53;48.97;;;20.15;;
22916;SDS011;11624;53.250;7.456;2023-04-01T05:10:21;47.42;;;19.60;;
22916;SDS011;11624;53.250;7.456;2023-04-01T05:12:49;53.17;;;21.02;;
22916;SDS011;11624;53.250;7.456;2023-04-01T05:15:20;50.78;;;19.92;;
22916;SDS011;11624;53.250;7.456;2023-04-01T05:17:49;45.25;;;19.20;;
22916;SDS011;11624;53.250;7.456;2023-04-01T05:20:18;46.83;;;20.80;;
22916;SDS011;11624;53.250;7.456;2023-04-01T05:22:46;49.97;;;20.40;;
22916;SDS011;11624;53.250;7.456;2023-04-01T05:25:15;50.08;;;20.33;;
22916;SDS011;11624;53.250;7.456;2023-04-01T05:27:44;46.70;;;20.75;;
22916;SDS011;11624;53.250;7.456;2023-04-01T05:30:12;46.28;;;19.90;;
22916;SDS011;11624;53.250;7.456;2023-04-01T05:33:12;49.65;;;20.90;;
22916;SDS011;11624;53.250;7.456;2023-04-01T05:35:41;55.67;;;20.80;;
22916;SDS011;11624;53.250;7.456;2023-04-01T05:38:12;53.15;;;21.88;;
22916;SDS011;11624;53.250;7.456;2023-04-01T05:40:41;52.42;;;20.42;;
22916;SDS011;11624;53.250;7.456;2023-04-01T05:43:10;51.50;;;20.85;;
22916;SDS011;11624;53.250;7.456;2023-04-01T05:45:38;51.92;;;20.90;;
22916;SDS011;11624;53.250;7.456;2023-04-01T05:48:09;55.47;;;20.92;;
22916;SDS011;11624;53.250;7.456;2023-04-01T05:50:39;55.65;;;20.92;;
22916;SDS011;11624;53.250;7.456;2023-04-01T05:53:09;49.97;;;20.58;;
22916;SDS011;11624;53.250;7.456;2023-04-01T05:55:42;51.67;;;21.33;;
22916;SDS011;11624;53.250;7.456;2023-04-01T05:58:10;51.10;;;21.25;;
22916;SDS011;11624;53.250;7.456;2023-04-01T06:00:41;53.60;;;22.08;;
22916;SDS011;11624;53.250;7.456;2023-04-01T06:03:11;49.88;;;21.88;;
22916;SDS011;11624;53.250;7.456;2023-04-01T06:05:39;51.22;;;21.13;;
22916;SDS011;11624;53.250;7.456;2023-04-01T06:08:12;52.72;;;20.65;;
22916;SDS011;11624;53.250;7.456;2023-04-01T06:10:53;56.55;;;21.15;;
22916;SDS011;11624;53.250;7.456;2023-04-01T06:13:33;52.83;;;20.20;;
22916;SDS011;11624;53.250;7.456;2023-04-01T06:16:17;45.92;;;19.00;;
22916;SDS011;11624;53.250;7.456;2023-04-01T06:19:00;49.60;;;19.92;;
22916;SDS011;11624;53.250;7.456;2023-04-01T06:21:48;46.92;;;18.52;;
22916;SDS011;11624;53.250;7.456;2023-04-01T06:24:37;46.90;;;19.40;;
22916;SDS011;11624;53.250;7.456;2023-04-01T06:27:24;47.13;;;18.58;;
22916;SDS011;11624;53.250;7.456;2023-04-01T06:30:07;48.67;;;18.50;;
22916;SDS011;11624;53.250;7.456;2023-04-01T06:32:56;46.17;;;18.95;;
22916;SDS011;11624;53.250;7.456;2023-04-01T06:35:41;42.22;;;18.88;;
22916;SDS011;11624;53.250;7.456;2023-04-01T06:38:31;42.25;;;18.40;;
22916;SDS011;11624;53.250;7.456;2023-04-01T06:41:16;40.85;;;17.70;;
22916;SDS011;11624;53.250;7.456;2023-04-01T06:44:08;43.10;;;17.63;;
22916;SDS011;11624;53.250;7.456;2023-04-01T06:47:06;39.60;;;18.13;;
22916;SDS011;11624;53.250;7.456;2023-04-01T06:50:15;41.90;;;17.52;;
22916;SDS011;11624;53.250;7.456;2023-04-01T06:52:54;40.20;;;17.15;;
22916;SDS011;11624;53.250;7.456;2023-04-01T06:55:47;42.95;;;18.40;;
22916;SDS011;11624;53.250;7.456;2023-04-01T06:58:46;35.25;;;16.58;;
22916;SDS011;11624;53.250;7.456;2023-04-01T07:01:18;36.08;;;16.58;;
22916;SDS011;11624;53.250;7.456;2023-04-01T07:03:51;39.45;;;17.63;;
22916;SDS011;11624;53.250;7.456;2023-04-01T07:06:26;38.33;;;17.17;;
22916;SDS011;11624;53.250;7.456;2023-04-01T07:09:00;39.42;;;16.85;;
22916;SDS011;11624;53.250;7.456;2023-04-01T07:11:52;37.45;;;16.48;;
22916;SDS011;11624;53.250;7.456;2023-04-01T07:15:00;34.83;;;16.52;;
22916;SDS011;11624;53.250;7.456;2023-04-01T07:17:35;31.92;;;15.77;;
22916;SDS011;11624;53.250;7.456;2023-04-01T07:20:10;30.75;;;15.27;;
22916;SDS011;11624;53.250;7.456;2023-04-01T07:22:43;34.15;;;15.85;;
22916;SDS011;11624;53.250;7.456;2023-04-01T07:25:24;33.90;;;16.58;;
22916;SDS011;11624;53.250;7.456;2023-04-01T07:28:16;34.15;;;15.00;;
22916;SDS011;11624;53.250;7.456;2023-04-01T07:30:57;30.45;;;14.88;;
22916;SDS011;11624;53.250;7.456;2023-04-01T07:33:37;27.80;;;14.25;;
22916;SDS011;11624;53.250;7.456;2023-04-01T07:36:10;26.35;;;13.27;;
22916;SDS011;11624;53.250;7.456;2023-04-01T07:38:47;25.65;;;13.15;;
22916;SDS011;11624;53.250;7.456;2023-04-01T07:41:47;27.60;;;13.02;;
22916;SDS011;11624;53.250;7.456;2023-04-01T07:44:22;25.63;;;13.02;;
22916;SDS011;11624;53.250;7.456;2023-04-01T07:46:58;23.73;;;12.38;;
22916;SDS011;11624;53.250;7.456;2023-04-01T07:49:40;22.30;;;11.68;;
22916;SDS011;11624;53.250;7.456;2023-04-01T07:52:19;27.30;;;11.73;;
22916;SDS011;11624;53.250;7.456;2023-04-01T07:55:00;23.00;;;10.85;;
22916;SDS011;11624;53.250;7.456;2023-04-01T07:57:34;22.40;;;9.02;;
22916;SDS011;11624;53.250;7.456;2023-04-01T08:00:10;20.58;;;9.63;;
22916;SDS011;11624;53.250;7.456;2023-04-01T08:03:03;18.10;;;9.30;;
22916;SDS011;11624;53.250;7.456;2023-04-01T08:05:53;17.17;;;8.32;;
22916;SDS011;11624;53.250;7.456;2023-04-01T08:08:28;17.58;;;8.98;;
22916;SDS011;11624;53.250;7.456;2023-04-01T08:11:25;17.38;;;7.97;;
22916;SDS011;11624;53.250;7.456;2023-04-01T08:14:21;15.82;;;7.82;;
22916;SDS011;11624;53.250;7.456;2023-04-01T08:17:18;15.10;;;7.20;;
22916;SDS011;11624;53.250;7.456;2023-04-01T08:19:56;14.88;;;7.45;;
22916;SDS011;11624;53.250;7.456;2023-04-01T08:22:38;15.75;;;7.35;;
22916;SDS011;11624;53.250;7.456;2023-04-01T08:25:17;15.25;;;7.13;;
22916;SDS011;11624;53.250;7.456;2023-04-01T08:27:51;16.13;;;6.90;;
22916;SDS011;11624;53.250;7.456;2023-04-01T08:30:25;14.52;;;6.47;;
22916;SDS011;11624;53.250;7.456;2023-04-01T08:32:57;13.48;;;6.85;;
22916;SDS011;11624;53.250;7.456;2023-04-01T08:35:37;15.95;;;7.60;;
22916;SDS011;11624;53.250;7.456;2023-04-01T08:38:12;17.05;;;8.00;;
22916;SDS011;11624;53.250;7.456;2023-04-01T08:40:52;17.13;;;8.38;;
22916;SDS011;11624;53.250;7.456;2023-04-01T08:43:55;16.70;;;8.55;;
22916;SDS011;11624;53.250;7.456;2023-04-01T08:46:56;13.55;;;5.47;;
22916;SDS011;11624;53.250;7.456;2023-04-01T08:49:56;13.90;;;5.57;;
22916;SDS011;11624;53.250;7.456;2023-04-01T08:52:58;13.75;;;5.10;;
22916;SDS011;11624;53.250;7.456;2023-04-01T08:55:34;12.55;;;4.60;;
22916;SDS011;11624;53.250;7.456;2023-04-01T08:58:26;10.27;;;4.07;;
22916;SDS011;11624;53.250;7.456;2023-04-01T09:04:50;6.35;;;2.80;;
22916;SDS011;11624;53.250;7.456;2023-04-01T09:07:35;9.45;;;2.88;;
22916;SDS011;11624;53.250;7.456;2023-04-01T09:13:58;5.22;;;2.30;;
22916;SDS011;11624;53.250;7.456;2023-04-01T09:19:49;5.03;;;2.13;;
22916;SDS011;11624;53.250;7.456;2023-04-01T09:22:50;4.13;;;2.10;;
22916;SDS011;11624;53.250;7.456;2023-04-01T09:25:44;4.38;;;2.20;;
22916;SDS011;11624;53.250;7.456;2023-04-01T09:28:18;4.28;;;1.90;;
22916;SDS011;11624;53.250;7.456;2023-04-01T09:30:59;4.60;;;2.08;;
22916;SDS011;11624;53.250;7.456;2023-04-01T09:34:06;7.43;;;2.28;;
22916;SDS011;11624;53.250;7.456;2023-04-01T09:37:03;4.95;;;2.05;;
22916;SDS011;11624;53.250;7.456;2023-04-01T09:40:03;5.47;;;2.35;;
22916;SDS011;11624;53.250;7.456;2023-04-01T09:46:10;4.28;;;2.10;;
22916;SDS011;11624;53.250;7.456;2023-04-01T09:51:45;6.00;;;2.20;;
22916;SDS011;11624;53.250;7.456;2023-04-01T09:54:31;5.43;;;2.30;;
22916;SDS011;11624;53.250;7.456;2023-04-01T10:01:02;5.57;;;2.40;;
22916;SDS011;11624;53.250;7.456;2023-04-01T10:06:59;9.27;;;3.45;;
22916;SDS011;11624;53.250;7.456;2023-04-01T10:10:03;9.05;;;3.55;;
22916;SDS011;11624;53.250;7.456;2023-04-01T10:13:05;9.50;;;3.35;;
22916;SDS011;11624;53.250;7.456;2023-04-01T10:16:11;7.15;;;3.00;;
22916;SDS011;11624;53.250;7.456;2023-04-01T10:28:23;3.78;;;1.83;;
22916;SDS011;11624;53.250;7.456;2023-04-01T10:32:02;4.00;;;1.92;;
22916;SDS011;11624;53.250;7.456;2023-04-01T10:34:59;3.45;;;2.05;;
22916;SDS011;11624;53.250;7.456;2023-04-01T10:41:11;4.72;;;2.20;;
22916;SDS011;11624;53.250;7.456;2023-04-01T10:44:23;5.47;;;2.20;;
22916;SDS011;11624;53.250;7.456;2023-04-01T10:50:24;7.40;;;3.30;;
22916;SDS011;11624;53.250;7.456;2023-04-01T10:56:50;7.78;;;3.50;;
22916;SDS011;11624;53.250;7.456;2023-04-01T11:06:55;4.65;;;2.30;;
22916;SDS011;11624;53.250;7.456;2023-04-01T11:16:33;4.60;;;2.47;;
22916;SDS011;11624;53.250;7.456;2023-04-01T11:22:44;5.07;;;2.65;;
22916;SDS011;11624;53.250;7.456;2023-04-01T11:25:25;4.60;;;2.35;;
22916;SDS011;11624;53.250;7.456;2023-04-01T11:31:48;5.22;;;2.60;;
22916;SDS011;11624;53.250;7.456;2023-04-01T11:34:32;6.75;;;2.83;;
22916;SDS011;11624;53.250;7.456;2023-04-01T11:37:18;5.45;;;2.70;;
22916;SDS011;11624;53.250;7.456;2023-04-01T11:40:37;10.45;;;3.08;;
22916;SDS011;11624;53.250;7.456;2023-04-01T11:43:32;5.72;;;2.58;;
22916;SDS011;11624;53.250;7.456;2023-04-01T11:46:25;4.47;;;2.50;;
22916;SDS011;11624;53.250;7.456;2023-04-01T11:49:01;5.53;;;2.58;;
22916;SDS011;11624;53.250;7.456;2023-04-01T11:51:44;4.22;;;2.28;;
22916;SDS011;11624;53.250;7.456;2023-04-01T11:54:27;5.38;;;2.15;;
22916;SDS011;11624;53.250;7.456;2023-04-01T11:57:12;5.05;;;2.08;;
22916;SDS011;11624;53.250;7.456;2023-04-01T12:00:00;4.70;;;2.08;;
22916;SDS011;11624;53.250;7.456;2023-04-01T12:02:46;3.10;;;1.80;;
22916;SDS011;11624;53.250;7.456;2023-04-01T12:05:38;3.30;;;1.85;;
22916;SDS011;11624;53.250;7.456;2023-04-01T12:08:13;5.07;;;2.13;;
22916;SDS011;11624;53.250;7.456;2023-04-01T12:10:50;4.25;;;2.00;;
22916;SDS011;11624;53.250;7.456;2023-04-01T12:13:27;4.47;;;2.00;;
22916;SDS011;11624;53.250;7.456;2023-04-01T12:16:13;4.72;;;2.28;;
22916;SDS011;11624;53.250;7.456;2023-04-01T12:18:50;4.53;;;2.20;;
22916;SDS011;11624;53.250;7.456;2023-04-01T12:21:26;4.95;;;2.33;;
22916;SDS011;11624;53.250;7.456;2023-04-01T12:24:09;4.30;;;2.08;;
22916;SDS011;11624;53.250;7.456;2023-04-01T12:27:11;4.13;;;1.92;;
22916;SDS011;11624;53.250;7.456;2023-04-01T12:30:17;4.72;;;2.40;;
22916;SDS011;11624;53.250;7.456;2023-04-01T12:32:59;3.20;;;1.83;;
22916;SDS011;11624;53.250;7.456;2023-04-01T12:35:41;3.97;;;1.80;;
22916;SDS011;11624;53.250;7.456;2023-04-01T12:38:24;3.25;;;1.80;;
22916;SDS011;11624;53.250;7.456;2023-04-01T12:44:11;3.70;;;2.08;;
22916;SDS011;11624;53.250;7.456;2023-04-01T12:47:07;4.72;;;1.90;;
22916;SDS011;11624;53.250;7.456;2023-04-01T12:50:06;5.15;;;1.80;;
22916;SDS011;11624;53.250;7.456;2023-04-01T12:52:57;4.65;;;2.00;;
22916;SDS011;11624;53.250;7.456;2023-04-01T12:55:36;5.03;;;2.00;;
22916;SDS011;11624;53.250;7.456;2023-04-01T13:01:25;2.42;;;1.75;;
22916;SDS011;11624;53.250;7.456;2023-04-01T13:07:44;3.45;;;1.83;;
22916;SDS011;11624;53.250;7.456;2023-04-01T13:10:41;2.92;;;1.83;;
22916;SDS011;11624;53.250;7.456;2023-04-01T13:13:40;4.68;;;1.95;;
22916;SDS011;11624;53.250;7.456;2023-04-01T13:16:22;4.75;;;2.08;;
22916;SDS011;11624;53.250;7.456;2023-04-01T13:18:56;3.38;;;2.03;;
22916;SDS011;11624;53.250;7.456;2023-04-01T13:21:33;3.40;;;1.90;;
22916;SDS011;11624;53.250;7.456;2023-04-01T13:24:15;7.63;;;2.15;;
22916;SDS011;11624;53.250;7.456;2023-04-01T13:26:56;4.60;;;2.03;;
22916;SDS011;11624;53.250;7.456;2023-04-01T13:29:31;3.95;;;1.80;;
22916;SDS011;11624;53.250;7.456;2023-04-01T13:32:08;3.80;;;1.90;;
22916;SDS011;11624;53.250;7.456;2023-04-01T13:35:11;4.00;;;2.08;;
22916;SDS011;11624;53.250;7.456;2023-04-01T13:37:57;4.82;;;1.90;;
22916;SDS011;11624;53.250;7.456;2023-04-01T13:40:37;3.88;;;2.10;;
22916;SDS011;11624;53.250;7.456;2023-04-01T13:43:28;3.65;;;2.05;;
22916;SDS011;11624;53.250;7.456;2023-04-01T13:46:08;3.00;;;1.90;;
22916;SDS011;11624;53.250;7.456;2023-04-01T13:48:57;3.05;;;1.80;;
22916;SDS011;11624;53.250;7.456;2023-04-01T13:51:55;2.58;;;1.85;;
22916;SDS011;11624;53.250;7.456;2023-04-01T13:54:40;3.92;;;1.92;;
22916;SDS011;11624;53.250;7.456;2023-04-01T13:57:23;6.65;;;2.30;;
22916;SDS011;11624;53.250;7.456;2023-04-01T14:00:10;3.08;;;1.90;;
22916;SDS011;11624;53.250;7.456;2023-04-01T14:02:50;4.20;;;1.60;;
22916;SDS011;11624;53.250;7.456;2023-04-01T14:05:37;4.45;;;1.73;;
22916;SDS011;11624;53.250;7.456;2023-04-01T14:08:18;4.50;;;1.42;;
22916;SDS011;11624;53.250;7.456;2023-04-01T14:10:56;3.08;;;1.40;;
22916;SDS011;11624;53.250;7.456;2023-04-01T14:13:34;2.10;;;1.50;;
22916;SDS011;11624;53.250;7.456;2023-04-01T14:16:23;3.20;;;1.67;;
22916;SDS011;11624;53.250;7.456;2023-04-01T14:19:23;4.75;;;2.05;;
22916;SDS011;11624;53.250;7.456;2023-04-01T14:21:58;5.72;;;2.40;;
22916;SDS011;11624;53.250;7.456;2023-04-01T14:24:42;6.30;;;2.20;;
22916;SDS011;11624;53.250;7.456;2023-04-01T14:30:20;4.75;;;2.20;;
22916;SDS011;11624;53.250;7.456;2023-04-01T14:33:15;3.45;;;2.20;;
22916;SDS011;11624;53.250;7.456;2023-04-01T14:36:00;4.57;;;2.50;;
22916;SDS011;11624;53.250;7.456;2023-04-01T14:38:51;5.95;;;2.97;;
22916;SDS011;11624;53.250;7.456;2023-04-01T14:41:31;8.23;;;3.28;;
22916;SDS011;11624;53.250;7.456;2023-04-01T14:44:23;7.10;;;3.10;;
22916;SDS011;11624;53.250;7.456;2023-04-01T14:47:08;8.38;;;3.58;;
22916;SDS011;11624;53.250;7.456;2023-04-01T14:49:49;9.55;;;3.90;;
22916;SDS011;11624;53.250;7.456;2023-04-01T14:52:23;9.38;;;3.92;;
22916;SDS011;11624;53.250;7.456;2023-04-01T14:54:55;9.30;;;4.28;;
22916;SDS011;11624;53.250;7.456;2023-04-01T14:57:27;12.02;;;4.85;;
22916;SDS011;11624;53.250;7.456;2023-04-01T14:59:59;11.90;;;4.30;;
22916;SDS011;11624;53.250;7.456;2023-04-01T15:05:26;11.27;;;4.50;;
22916;SDS011;11624;53.250;7.456;2023-04-01T15:08:11;10.15;;;4.38;;
22916;SDS011;11624;53.250;7.456;2023-04-01T15:16:36;11.00;;;4.93;;
22916;SDS011;11624;53.250;7.456;2023-04-01T15:19:14;11.98;;;4.88;;
22916;SDS011;11624;53.250;7.456;2023-04-01T15:21:57;10.52;;;4.43;;
22916;SDS011;11624;53.250;7.456;2023-04-01T15:24:40;11.63;;;4.63;;
22916;SDS011;11624;53.250;7.456;2023-04-01T15:27:17;12.90;;;4.45;;
22916;SDS011;11624;53.250;7.456;2023-04-01T15:30:06;11.10;;;4.22;;
22916;SDS011;11624;53.250;7.456;2023-04-01T15:32:53;11.52;;;4.50;;
22916;SDS011;11624;53.250;7.456;2023-04-01T15:35:46;11.40;;;4.47;;
22916;SDS011;11624;53.250;7.456;2023-04-01T15:38:26;12.90;;;4.93;;
22916;SDS011;11624;53.250;7.456;2023-04-01T15:41:05;11.70;;;4.38;;
22916;SDS011;11624;53.250;7.456;2023-04-01T15:43:41;13.93;;;4.90;;
22916;SDS011;11624;53.250;7.456;2023-04-01T15:49:20;13.35;;;4.95;;
22916;SDS011;11624;53.250;7.456;2023-04-01T15:52:02;16.30;;;5.95;;
22916;SDS011;11624;53.250;7.456;2023-04-01T15:54:47;15.80;;;5.45;;
22916;SDS011;11624;53.250;7.456;2023-04-01T15:57:34;14.90;;;5.53;;
22916;SDS011;11624;53.250;7.456;2023-04-01T16:00:19;14.75;;;5.78;;
22916;SDS011;11624;53.250;7.456;2023-04-01T16:02:56;12.90;;;5.95;;
22916;SDS011;11624;53.250;7.456;2023-04-01T16:05:41;12.80;;;5.38;;
22916;SDS011;11624;53.250;7.456;2023-04-01T16:08:21;11.77;;;5.00;;
22916;SDS011;11624;53.250;7.456;2023-04-01T16:11:16;15.77;;;5.85;;
22916;SDS011;11624;53.250;7.456;2023-04-01T16:13:54;15.18;;;5.20;;
22916;SDS011;11624;53.250;7.456;2023-04-01T16:16:32;15.80;;;6.07;;
22916;SDS011;11624;53.250;7.456;2023-04-01T16:19:18;16.58;;;5.70;;
22916;SDS011;11624;53.250;7.456;2023-04-01T16:21:59;12.68;;;5.28;;
22916;SDS011;11624;53.250;7.456;2023-04-01T16:24:33;15.00;;;5.63;;
22916;SDS011;11624;53.250;7.456;2023-04-01T16:27:05;13.23;;;5.55;;
22916;SDS011;11624;53.250;7.456;2023-04-01T16:29:41;20.05;;;5.53;;
22916;SDS011;11624;53.250;7.456;2023-04-01T16:32:17;15.00;;;5.78;;
22916;SDS011;11624;53.250;7.456;2023-04-01T16:34:56;18.23;;;5.78;;
22916;SDS011;11624;53.250;7.456;2023-04-01T16:37:33;12.60;;;5.28;;
22916;SDS011;11624;53.250;7.456;2023-04-01T16:40:10;14.27;;;5.38;;
22916;SDS011;11624;53.250;7.456;2023-04-01T16:42:46;12.52;;;5.43;;
22916;SDS011;11624;53.250;7.456;2023-04-01T16:45:24;16.58;;;5.80;;
22916;SDS011;11624;53.250;7.456;2023-04-01T16:48:01;14.88;;;6.10;;
22916;SDS011;11624;53.250;7.456;2023-04-01T16:50:47;14.27;;;5.82;;
22916;SDS011;11624;53.250;7.456;2023-04-01T16:53:21;15.43;;;5.88;;
22916;SDS011;11624;53.250;7.456;2023-04-01T16:56:02;14.02;;;6.35;;
22916;SDS011;11624;53.250;7.456;2023-04-01T16:58:41;16.25;;;6.28;;
22916;SDS011;11624;53.250;7.456;2023-04-01T17:01:16;14.38;;;5.93;;
22916;SDS011;11624;53.250;7.456;2023-04-01T17:03:51;15.15;;;6.53;;
22916;SDS011;11624;53.250;7.456;2023-04-01T17:06:28;14.88;;;5.85;;
22916;SDS011;11624;53.250;7.456;2023-04-01T17:09:10;14.55;;;6.22;;
22916;SDS011;11624;53.250;7.456;2023-04-01T17:11:47;12.75;;;5.97;;